Dalton, New Hampshire
Current Conditions -  °F | °C
As of 6:52 AM on Monday 24 Nov 2014 (Local Time) from KHIE Reporting Station
Moderate Rain Moderate Rain  
Wind Chill:   Ceiling: 5500
Heat Index:   Visibility: 4mi
Dew Point:   Wind: 12mph
Humidity: 83%   Direction: 180°S
Pressure: 29.8"   Gusts: NA
Location:  44.3374°N, 71.528°W
Report Text: KHIE 241152Z AUTO 18010KT 4SM RA BKN055 OVC075 09/06 A2980 RMK AO2 PK WND 19027/1136 SLP098 P0005 60005 70005 T00890061 10117 21006 56037
Loading
Personal Weather Stations






























Interactive Weather Map New forecast layout! Learn more

10-Day Weather Forecast

Advertisements
Track Severe Weather on mobile